Time;durP1;ratioP1;P1;durP2;ratioP2;P2;SDS_P1;SDS_P2;PMS_P1;PMS_P2;Temp;Humidity;BMP_temperature;BMP_pressure;BME280_temperature;BME280_humidity;BME280_pressure;Samples;Min_cycle;Max_cycle;Signal;HPM_P1;HPM_P2
2022/03/14 00:01:31;;;;;;;19.33;15.27;;;;;;;;;;5051386;28;20044;-70
2022/03/14 00:03:58;;;;;;;20.60;15.07;;;;;;;;;;5050622;28;20458;-70
2022/03/14 00:06:25;;;;;;;20.33;15.95;;;;;;;;;;5050168;28;20076;-71
2022/03/14 00:08:54;;;;;;;20.10;15.98;;;;;;;;;;5035492;28;20124;-71
2022/03/14 00:11:20;;;;;;;19.67;15.18;;;;;;;;;;5028470;28;20275;-71
2022/03/14 00:13:47;;;;;;;19.35;15.48;;;;;;;;;;5050706;28;20044;-71
2022/03/14 00:16:23;;;;;;;19.80;15.02;;;;;;;;;;5050624;28;20041;-71
2022/03/14 00:18:51;;;;;;;20.42;16.25;;;;;;;;;;5053445;28;20491;-71
2022/03/14 00:21:22;;;;;;;19.23;14.75;;;;;;;;;;5049350;28;20488;-70
2022/03/14 00:23:48;;;;;;;20.05;15.27;;;;;;;;;;5051635;28;20080;-71
2022/03/14 00:26:14;;;;;;;19.45;14.95;;;;;;;;;;5052379;28;20471;-71
2022/03/14 00:28:40;;;;;;;20.45;15.73;;;;;;;;;;5052696;28;20041;-71
2022/03/14 00:31:06;;;;;;;19.83;14.35;;;;;;;;;;5051674;28;20392;-71
2022/03/14 00:33:32;;;;;;;20.63;15.57;;;;;;;;;;5053075;28;20049;-71
2022/03/14 00:35:58;;;;;;;21.58;15.07;;;;;;;;;;5052787;28;20053;-71
2022/03/14 00:38:27;;;;;;;19.33;14.85;;;;;;;;;;5051861;28;20124;-71
2022/03/14 00:40:54;;;;;;;19.67;15.07;;;;;;;;;;5052975;28;20450;-71
2022/03/14 00:43:19;;;;;;;21.92;15.27;;;;;;;;;;5052866;28;20040;-71
2022/03/14 00:45:45;;;;;;;18.02;14.40;;;;;;;;;;5030361;28;20049;-69
2022/03/14 00:48:11;;;;;;;17.75;14.43;;;;;;;;;;5050372;28;20450;-71
2022/03/14 00:50:38;;;;;;;18.75;14.80;;;;;;;;;;5029062;28;20071;-71
2022/03/14 00:53:04;;;;;;;19.58;14.48;;;;;;;;;;5048994;28;20056;-70
2022/03/14 00:55:29;;;;;;;17.25;13.50;;;;;;;;;;5044760;28;20460;-70
2022/03/14 00:57:55;;;;;;;19.45;13.65;;;;;;;;;;5044215;28;20048;-70
2022/03/14 01:00:22;;;;;;;16.90;13.63;;;;;;;;;;5044086;28;20033;-70
2022/03/14 01:02:50;;;;;;;16.52;12.70;;;;;;;;;;5048878;28;20116;-70
2022/03/14 01:05:16;;;;;;;16.45;12.52;;;;;;;;;;5051653;28;20487;-71
2022/03/14 01:07:42;;;;;;;17.20;12.77;;;;;;;;;;5030346;28;20691;-70
2022/03/14 01:10:08;;;;;;;17.75;11.75;;;;;;;;;;5032556;28;20432;-70
2022/03/14 01:12:34;;;;;;;13.63;10.63;;;;;;;;;;5033190;28;20040;-71
2022/03/14 01:15:01;;;;;;;15.30;10.60;;;;;;;;;;5047187;28;20045;-69
2022/03/14 01:17:27;;;;;;;11.95;9.40;;;;;;;;;;5032242;28;20040;-70
2022/03/14 01:19:53;;;;;;;12.98;9.50;;;;;;;;;;5052047;28;20044;-70
2022/03/14 01:22:19;;;;;;;11.73;8.93;;;;;;;;;;5032001;28;20111;-70
2022/03/14 01:24:45;;;;;;;11.02;8.13;;;;;;;;;;5048992;28;20129;-70
2022/03/14 01:27:13;;;;;;;11.13;7.60;;;;;;;;;;5050803;28;20040;-70
2022/03/14 01:29:39;;;;;;;9.75;7.63;;;;;;;;;;5032634;28;20091;-70
2022/03/14 01:32:06;;;;;;;9.32;6.90;;;;;;;;;;5032524;28;20049;-70
2022/03/14 01:34:32;;;;;;;9.35;6.20;;;;;;;;;;5010848;28;20041;-70
2022/03/14 01:36:58;;;;;;;9.68;5.75;;;;;;;;;;5047607;28;20502;-70
2022/03/14 01:39:24;;;;;;;10.02;6.00;;;;;;;;;;5050534;28;20037;-70
2022/03/14 01:41:52;;;;;;;8.93;5.70;;;;;;;;;;5049940;28;20495;-70
2022/03/14 01:44:19;;;;;;;8.13;5.88;;;;;;;;;;5049691;28;20194;-70
2022/03/14 01:46:45;;;;;;;8.70;6.47;;;;;;;;;;5050048;28;20052;-70
2022/03/14 01:49:11;;;;;;;8.63;5.75;;;;;;;;;;5050666;28;20407;-70
2022/03/14 01:51:40;;;;;;;7.57;5.68;;;;;;;;;;5051183;28;20041;-71
2022/03/14 01:54:07;;;;;;;8.43;6.13;;;;;;;;;;5051004;28;20040;-70
2022/03/14 01:56:34;;;;;;;9.18;6.05;;;;;;;;;;5050725;28;20430;-71
2022/03/14 01:59:00;;;;;;;7.95;5.20;;;;;;;;;;5051761;28;20455;-71
2022/03/14 02:01:26;;;;;;;8.13;5.40;;;;;;;;;;5032503;28;20135;-71
2022/03/14 02:03:53;;;;;;;8.75;5.53;;;;;;;;;;5032165;28;20124;-71
2022/03/14 02:06:19;;;;;;;8.25;5.22;;;;;;;;;;5051311;28;20045;-70
2022/03/14 02:08:45;;;;;;;8.20;5.25;;;;;;;;;;5030091;28;20760;-70
2022/03/14 02:11:11;;;;;;;8.88;5.30;;;;;;;;;;5050915;28;20041;-70
2022/03/14 02:13:37;;;;;;;8.27;5.18;;;;;;;;;;5051173;28;20124;-71
2022/03/14 02:16:03;;;;;;;8.25;4.97;;;;;;;;;;5051261;28;20128;-70
2022/03/14 02:18:29;;;;;;;8.02;5.47;;;;;;;;;;5053354;28;20563;-70
2022/03/14 02:20:56;;;;;;;8.20;5.10;;;;;;;;;;5055112;28;20495;-69
2022/03/14 02:23:22;;;;;;;9.23;5.03;;;;;;;;;;5042834;28;20495;-70
2022/03/14 02:25:49;;;;;;;6.72;4.75;;;;;;;;;;5054594;28;20468;-71
2022/03/14 02:28:16;;;;;;;7.32;4.70;;;;;;;;;;5035179;28;20040;-70
2022/03/14 02:30:43;;;;;;;7.72;4.85;;;;;;;;;;5053519;28;20084;-70
2022/03/14 02:33:10;;;;;;;8.45;4.75;;;;;;;;;;5050579;28;20132;-70
2022/03/14 02:35:39;;;;;;;7.65;5.15;;;;;;;;;;5036766;28;20049;-70
2022/03/14 02:38:06;;;;;;;8.95;5.55;;;;;;;;;;5030146;28;20492;-70
2022/03/14 02:40:32;;;;;;;10.32;6.90;;;;;;;;;;5049173;28;20051;-71
2022/03/14 02:42:58;;;;;;;11.77;7.70;;;;;;;;;;5053995;28;20072;-70
2022/03/14 02:45:24;;;;;;;11.20;7.72;;;;;;;;;;5054916;28;20037;-70
2022/03/14 02:47:50;;;;;;;12.32;7.80;;;;;;;;;;5053114;28;20110;-70
2022/03/14 02:50:16;;;;;;;12.82;8.45;;;;;;;;;;5051591;28;20048;-71
2022/03/14 02:52:42;;;;;;;13.45;8.65;;;;;;;;;;5052017;28;20045;-70
2022/03/14 02:55:08;;;;;;;12.10;8.82;;;;;;;;;;5055441;28;20051;-70
2022/03/14 02:57:34;;;;;;;12.20;8.82;;;;;;;;;;5053913;28;20127;-70
2022/03/14 03:00:01;;;;;;;11.43;8.80;;;;;;;;;;5035580;28;20164;-71
2022/03/14 03:02:28;;;;;;;11.20;8.35;;;;;;;;;;5054147;28;20045;-71
2022/03/14 03:04:55;;;;;;;11.38;8.52;;;;;;;;;;5054946;28;20412;-71
2022/03/14 03:07:22;;;;;;;13.57;8.90;;;;;;;;;;5034640;28;20407;-71
2022/03/14 03:09:48;;;;;;;10.07;7.85;;;;;;;;;;5054564;28;20072;-71
2022/03/14 03:12:14;;;;;;;11.13;8.95;;;;;;;;;;5053180;28;20099;-71
2022/03/14 03:14:40;;;;;;;12.70;8.73;;;;;;;;;;5054182;28;20044;-70
2022/03/14 03:17:06;;;;;;;11.35;8.30;;;;;;;;;;5036193;28;20045;-70
2022/03/14 03:19:33;;;;;;;11.38;9.05;;;;;;;;;;5054124;28;20045;-70
2022/03/14 03:21:59;;;;;;;10.98;8.55;;;;;;;;;;5053065;28;20041;-71
2022/03/14 03:24:25;;;;;;;11.52;8.95;;;;;;;;;;5035621;28;20416;-70
2022/03/14 03:26:51;;;;;;;14.27;9.50;;;;;;;;;;5053957;28;20045;-70
2022/03/14 03:29:17;;;;;;;12.85;9.50;;;;;;;;;;5034427;28;20156;-70
2022/03/14 03:31:43;;;;;;;11.43;8.73;;;;;;;;;;5051151;28;20377;-70
2022/03/14 03:34:09;;;;;;;13.32;8.90;;;;;;;;;;5051368;28;20507;-70
2022/03/14 03:36:36;;;;;;;14.85;9.00;;;;;;;;;;5036610;28;20080;-71
2022/03/14 03:39:03;;;;;;;11.05;8.30;;;;;;;;;;5051067;28;20042;-70
2022/03/14 03:41:29;;;;;;;10.75;7.88;;;;;;;;;;5052256;28;20049;-70
2022/03/14 03:43:55;;;;;;;9.95;7.40;;;;;;;;;;5054494;28;20056;-70
2022/03/14 03:46:21;;;;;;;10.45;7.60;;;;;;;;;;5053265;28;20041;-70
2022/03/14 03:48:47;;;;;;;10.75;8.05;;;;;;;;;;5053697;28;20051;-70
2022/03/14 03:51:13;;;;;;;10.68;7.55;;;;;;;;;;5051986;28;20048;-70
2022/03/14 03:53:39;;;;;;;10.07;6.95;;;;;;;;;;5053489;28;20037;-71
2022/03/14 03:56:05;;;;;;;9.85;7.00;;;;;;;;;;5051921;28;20555;-70
2022/03/14 03:58:31;;;;;;;10.85;7.63;;;;;;;;;;5052799;28;20492;-70
2022/03/14 04:00:57;;;;;;;10.20;7.18;;;;;;;;;;5050593;28;20036;-70
2022/03/14 04:03:23;;;;;;;14.93;6.72;;;;;;;;;;5053379;28;20041;-70
2022/03/14 04:05:49;;;;;;;12.73;6.55;;;;;;;;;;5052696;28;20461;-70
2022/03/14 04:08:16;;;;;;;8.63;6.03;;;;;;;;;;5052867;28;20041;-70
2022/03/14 04:10:43;;;;;;;8.50;6.10;;;;;;;;;;5052472;28;20049;-71
2022/03/14 04:13:09;;;;;;;8.85;6.13;;;;;;;;;;5034145;28;20053;-69
2022/03/14 04:15:54;;;;;;;9.23;6.22;;;;;;;;;;5053666;28;20531;-71
2022/03/14 04:18:20;;;;;;;8.43;5.68;;;;;;;;;;5051235;28;20080;-71
2022/03/14 04:20:49;;;;;;;9.35;5.82;;;;;;;;;;5052556;28;20045;-71
2022/03/14 04:23:19;;;;;;;8.63;6.05;;;;;;;;;;5048360;28;20045;-71
2022/03/14 04:25:46;;;;;;;8.23;5.50;;;;;;;;;;5036479;28;20040;-71
2022/03/14 04:28:12;;;;;;;8.98;5.32;;;;;;;;;;5050255;28;20080;-71
2022/03/14 04:30:38;;;;;;;7.38;5.47;;;;;;;;;;5038241;28;20124;-71
2022/03/14 04:33:05;;;;;;;7.20;5.22;;;;;;;;;;5030361;28;20528;-71
2022/03/14 04:35:31;;;;;;;7.90;5.30;;;;;;;;;;5050899;28;20105;-71
2022/03/14 04:37:57;;;;;;;7.65;5.47;;;;;;;;;;5052034;28;20124;-71
2022/03/14 04:40:23;;;;;;;8.57;5.47;;;;;;;;;;5051819;28;20059;-71
2022/03/14 04:42:49;;;;;;;8.20;5.68;;;;;;;;;;5050515;28;20044;-71
2022/03/14 04:45:15;;;;;;;7.63;5.35;;;;;;;;;;5052001;28;20092;-71
2022/03/14 04:47:41;;;;;;;9.05;5.60;;;;;;;;;;5052473;28;20130;-70
2022/03/14 04:50:08;;;;;;;7.45;5.28;;;;;;;;;;5052276;28;20047;-71
2022/03/14 04:52:34;;;;;;;7.20;5.45;;;;;;;;;;5033049;28;20053;-70
2022/03/14 04:55:00;;;;;;;10.57;5.68;;;;;;;;;;5048626;28;20049;-71
2022/03/14 04:57:26;;;;;;;8.05;5.97;;;;;;;;;;5051670;28;20072;-71
2022/03/14 04:59:52;;;;;;;8.40;6.20;;;;;;;;;;5051875;28;20103;-71
2022/03/14 05:02:22;;;;;;;9.90;6.30;;;;;;;;;;5051306;28;20566;-71
2022/03/14 05:04:48;;;;;;;8.85;6.90;;;;;;;;;;5051800;28;20411;-71
2022/03/14 05:07:14;;;;;;;9.93;7.50;;;;;;;;;;5050221;28;20048;-71
2022/03/14 05:09:40;;;;;;;10.50;7.47;;;;;;;;;;5034035;28;20044;-71
2022/03/14 05:12:07;;;;;;;9.73;7.50;;;;;;;;;;5050950;28;20482;-70
2022/03/14 05:14:34;;;;;;;13.07;7.55;;;;;;;;;;5033658;28;20490;-70
2022/03/14 05:17:01;;;;;;;11.75;7.90;;;;;;;;;;5049874;28;20045;-70
2022/03/14 05:19:27;;;;;;;10.75;7.88;;;;;;;;;;5032922;28;20041;-70
2022/03/14 05:21:53;;;;;;;10.70;7.55;;;;;;;;;;5032751;28;20071;-71
2022/03/14 05:24:19;;;;;;;11.18;7.80;;;;;;;;;;5042566;28;20151;-71
2022/03/14 05:26:45;;;;;;;11.43;8.10;;;;;;;;;;5032364;28;20439;-71
2022/03/14 05:29:14;;;;;;;11.25;8.20;;;;;;;;;;5032336;28;20470;-71
2022/03/14 05:31:40;;;;;;;11.40;8.50;;;;;;;;;;5051209;28;20053;-71
2022/03/14 05:34:07;;;;;;;10.73;8.48;;;;;;;;;;5049740;28;20124;-71
2022/03/14 05:36:33;;;;;;;11.25;8.63;;;;;;;;;;5051758;28;20052;-72
2022/03/14 05:38:59;;;;;;;12.18;8.95;;;;;;;;;;5050551;28;20037;-70
2022/03/14 05:41:26;;;;;;;13.18;9.82;;;;;;;;;;5049826;28;20044;-70
2022/03/14 05:43:52;;;;;;;11.77;8.82;;;;;;;;;;5032312;28;20051;-73
2022/03/14 05:46:18;;;;;;;11.68;8.82;;;;;;;;;;5033174;28;20041;-71
2022/03/14 05:48:44;;;;;;;12.88;9.02;;;;;;;;;;5032057;28;20048;-71
2022/03/14 05:51:10;;;;;;;10.82;8.63;;;;;;;;;;5051339;28;20041;-71
2022/03/14 05:53:36;;;;;;;13.30;9.38;;;;;;;;;;5051630;28;20053;-71
2022/03/14 05:56:02;;;;;;;15.20;9.85;;;;;;;;;;5053734;28;20075;-71
2022/03/14 05:58:28;;;;;;;11.02;8.55;;;;;;;;;;5052725;28;20553;-70
2022/03/14 06:00:54;;;;;;;12.43;9.02;;;;;;;;;;5055310;28;20072;-71
2022/03/14 06:03:21;;;;;;;10.45;8.35;;;;;;;;;;5054103;28;20037;-70
2022/03/14 06:05:48;;;;;;;11.85;8.82;;;;;;;;;;5021396;28;20048;-70
2022/03/14 06:08:14;;;;;;;11.73;8.40;;;;;;;;;;5050708;28;20106;-71
2022/03/14 06:10:43;;;;;;;10.43;7.78;;;;;;;;;;5054114;28;20406;-72
2022/03/14 06:13:09;;;;;;;12.02;8.07;;;;;;;;;;5037374;28;20045;-71
2022/03/14 06:15:38;;;;;;;10.60;7.80;;;;;;;;;;5036383;28;20110;-71
2022/03/14 06:18:04;;;;;;;12.85;8.02;;;;;;;;;;5036453;28;20044;-70
2022/03/14 06:20:31;;;;;;;10.45;8.13;;;;;;;;;;5038181;28;20045;-70
2022/03/14 06:22:57;;;;;;;9.82;7.70;;;;;;;;;;5050753;28;20041;-70
2022/03/14 06:25:23;;;;;;;11.05;8.00;;;;;;;;;;5034548;28;20087;-70
2022/03/14 06:27:50;;;;;;;10.20;8.10;;;;;;;;;;5049043;28;20048;-72
2022/03/14 06:30:16;;;;;;;11.38;8.38;;;;;;;;;;5033915;28;20049;-71
2022/03/14 06:32:42;;;;;;;12.15;8.38;;;;;;;;;;5036771;28;20049;-69
2022/03/14 06:35:10;;;;;;;10.40;8.02;;;;;;;;;;5027043;28;20061;-69
2022/03/14 06:37:36;;;;;;;11.18;8.50;;;;;;;;;;5054711;28;20577;-71
2022/03/14 06:40:03;;;;;;;11.27;8.10;;;;;;;;;;5052438;28;20075;-70
2022/03/14 06:42:29;;;;;;;14.00;8.63;;;;;;;;;;5050104;28;20484;-70
2022/03/14 06:45:01;;;;;;;12.77;8.77;;;;;;;;;;5052801;28;20048;-70
2022/03/14 06:47:27;;;;;;;12.32;7.88;;;;;;;;;;5050469;28;20049;-71
2022/03/14 06:49:53;;;;;;;13.52;9.20;;;;;;;;;;5035773;28;20049;-69
2022/03/14 06:52:19;;;;;;;12.13;8.90;;;;;;;;;;5051530;28;20545;-71
2022/03/14 06:54:45;;;;;;;12.32;8.90;;;;;;;;;;5052064;28;20049;-72
2022/03/14 06:57:11;;;;;;;12.95;8.95;;;;;;;;;;5037206;28;20044;-69
2022/03/14 06:59:38;;;;;;;12.25;8.93;;;;;;;;;;5034944;28;20091;-69
2022/03/14 07:02:04;;;;;;;13.13;9.45;;;;;;;;;;5052157;28;20046;-70
2022/03/14 07:04:31;;;;;;;15.57;10.05;;;;;;;;;;5052267;28;20102;-69
2022/03/14 07:06:59;;;;;;;14.50;9.55;;;;;;;;;;5034933;28;20080;-70
2022/03/14 07:09:25;;;;;;;14.30;10.02;;;;;;;;;;5036908;28;20049;-70
2022/03/14 07:11:54;;;;;;;13.85;10.02;;;;;;;;;;5054481;28;20376;-70
2022/03/14 07:14:20;;;;;;;15.18;9.95;;;;;;;;;;5049237;28;20451;-68
2022/03/14 07:16:46;;;;;;;14.80;10.00;;;;;;;;;;5051165;28;20128;-68
2022/03/14 07:19:12;;;;;;;15.30;9.63;;;;;;;;;;5036369;28;20045;-68
2022/03/14 07:21:38;;;;;;;15.35;9.63;;;;;;;;;;5054095;28;20037;-69
2022/03/14 07:24:04;;;;;;;12.85;9.20;;;;;;;;;;5053856;28;20052;-69
2022/03/14 07:26:30;;;;;;;13.48;9.38;;;;;;;;;;5054388;28;20056;-69
2022/03/14 07:28:56;;;;;;;12.38;9.35;;;;;;;;;;5054263;28;20049;-68
2022/03/14 07:31:23;;;;;;;10.60;8.00;;;;;;;;;;5052706;28;20033;-69
2022/03/14 07:33:49;;;;;;;12.75;9.20;;;;;;;;;;5054849;28;20480;-69
2022/03/14 07:36:15;;;;;;;13.30;9.43;;;;;;;;;;5050093;28;20045;-70
2022/03/14 07:38:41;;;;;;;14.40;9.77;;;;;;;;;;5054369;28;20064;-70
2022/03/14 07:41:10;;;;;;;14.77;9.30;;;;;;;;;;5043595;28;20080;-70
2022/03/14 07:43:37;;;;;;;12.77;9.07;;;;;;;;;;5036001;28;20132;-70
2022/03/14 07:46:03;;;;;;;16.35;12.07;;;;;;;;;;5053887;28;20041;-70
2022/03/14 07:48:30;;;;;;;24.92;17.98;;;;;;;;;;5036264;28;20053;-70
2022/03/14 07:50:56;;;;;;;19.13;14.70;;;;;;;;;;5053658;28;20091;-70
2022/03/14 07:53:22;;;;;;;18.73;13.65;;;;;;;;;;5053476;28;20091;-70
2022/03/14 07:55:48;;;;;;;14.32;11.48;;;;;;;;;;5035989;28;20399;-71
2022/03/14 07:58:14;;;;;;;15.73;13.27;;;;;;;;;;5053086;28;20052;-70
2022/03/14 08:00:41;;;;;;;14.85;12.55;;;;;;;;;;5053332;28;20545;-72
2022/03/14 08:03:07;;;;;;;14.82;11.10;;;;;;;;;;5053476;28;20049;-71
2022/03/14 08:05:33;;;;;;;17.13;13.20;;;;;;;;;;5050373;28;20037;-68
2022/03/14 08:08:00;;;;;;;13.77;10.70;;;;;;;;;;5029498;28;20067;-69
2022/03/14 08:10:26;;;;;;;15.52;11.32;;;;;;;;;;5029102;28;20060;-70
2022/03/14 08:12:54;;;;;;;17.30;12.27;;;;;;;;;;5053323;28;20103;-69
2022/03/14 08:15:27;;;;;;;15.82;10.93;;;;;;;;;;5018596;28;20049;-69
2022/03/14 08:17:54;;;;;;;12.50;10.07;;;;;;;;;;5035060;28;20049;-69
2022/03/14 08:20:20;;;;;;;15.45;10.75;;;;;;;;;;5052933;28;20415;-69
2022/03/14 08:22:47;;;;;;;14.93;11.43;;;;;;;;;;5036227;28;20573;-69
2022/03/14 08:25:14;;;;;;;14.25;10.68;;;;;;;;;;5034561;28;20432;-69
2022/03/14 08:27:40;;;;;;;14.63;11.30;;;;;;;;;;5052943;28;20049;-69
2022/03/14 08:30:07;;;;;;;15.07;11.07;;;;;;;;;;5053051;28;20072;-70
2022/03/14 08:32:33;;;;;;;15.23;12.20;;;;;;;;;;5053654;28;20091;-69
2022/03/14 08:35:02;;;;;;;17.50;12.95;;;;;;;;;;5053143;28;20074;-69
2022/03/14 08:37:28;;;;;;;16.00;12.35;;;;;;;;;;5034797;28;20488;-69
2022/03/14 08:39:54;;;;;;;20.67;12.73;;;;;;;;;;5049031;28;20064;-69
2022/03/14 08:42:20;;;;;;;18.05;12.65;;;;;;;;;;5034663;28;20507;-71
2022/03/14 08:44:46;;;;;;;14.43;11.20;;;;;;;;;;5053136;28;20068;-69
2022/03/14 08:47:12;;;;;;;16.17;12.27;;;;;;;;;;5034716;28;20045;-69
2022/03/14 08:49:38;;;;;;;15.52;12.30;;;;;;;;;;5034699;28;20057;-69
2022/03/14 08:52:04;;;;;;;15.05;12.10;;;;;;;;;;5034983;28;20091;-69
2022/03/14 08:54:30;;;;;;;35.42;29.60;;;;;;;;;;5040979;28;20088;-68
2022/03/14 08:56:56;;;;;;;26.90;23.65;;;;;;;;;;5052868;28;20064;-69
2022/03/14 08:59:23;;;;;;;21.67;17.85;;;;;;;;;;5052332;28;20073;-70
2022/03/14 09:01:49;;;;;;;23.90;21.48;;;;;;;;;;5052232;28;20045;-69
2022/03/14 09:04:15;;;;;;;20.80;17.83;;;;;;;;;;5034400;28;20167;-69
2022/03/14 09:06:42;;;;;;;16.92;15.13;;;;;;;;;;5052804;28;20419;-69
2022/03/14 09:09:08;;;;;;;18.98;16.35;;;;;;;;;;5052323;28;20056;-69
2022/03/14 09:11:34;;;;;;;16.77;15.05;;;;;;;;;;5056642;28;20568;-69
2022/03/14 09:14:00;;;;;;;14.85;13.25;;;;;;;;;;5057904;28;20044;-69
2022/03/14 09:16:26;;;;;;;17.33;15.07;;;;;;;;;;5052549;28;20575;-69
2022/03/14 09:18:52;;;;;;;16.75;14.52;;;;;;;;;;5034355;28;20076;-69
2022/03/14 09:21:19;;;;;;;18.25;14.35;;;;;;;;;;5046870;28;20049;-69
2022/03/14 09:23:46;;;;;;;15.40;13.18;;;;;;;;;;5050492;28;20045;-70
2022/03/14 09:26:12;;;;;;;14.60;12.65;;;;;;;;;;5052002;28;20119;-69
2022/03/14 09:28:44;;;;;;;15.27;13.18;;;;;;;;;;5051628;28;20056;-69
2022/03/14 09:31:10;;;;;;;16.50;13.80;;;;;;;;;;5024776;28;20049;-71
2022/03/14 09:33:36;;;;;;;15.75;13.15;;;;;;;;;;5037394;28;20056;-70
2022/03/14 09:36:02;;;;;;;15.88;12.55;;;;;;;;;;5034654;28;20052;-69
2022/03/14 09:38:29;;;;;;;15.98;13.38;;;;;;;;;;5052027;28;20057;-69
2022/03/14 09:40:56;;;;;;;15.20;12.88;;;;;;;;;;5033786;28;20045;-69
2022/03/14 09:43:22;;;;;;;13.90;12.40;;;;;;;;;;5051232;28;20515;-69
2022/03/14 09:45:49;;;;;;;15.30;12.70;;;;;;;;;;5048342;28;20049;-69
2022/03/14 09:48:16;;;;;;;13.40;11.73;;;;;;;;;;5050385;28;20041;-69
2022/03/14 09:50:44;;;;;;;15.20;12.75;;;;;;;;;;5051631;28;20475;-68
2022/03/14 09:53:11;;;;;;;13.15;11.25;;;;;;;;;;5051981;28;20049;-69
2022/03/14 09:55:41;;;;;;;16.50;14.70;;;;;;;;;;5051793;28;20088;-74
2022/03/14 09:58:15;;;;;;;14.50;12.10;;;;;;;;;;5034083;28;20103;-69
2022/03/14 10:00:42;;;;;;;15.25;12.13;;;;;;;;;;5051454;28;20044;-74
2022/03/14 10:03:08;;;;;;;15.00;12.27;;;;;;;;;;5048672;28;20049;-70
2022/03/14 10:05:34;;;;;;;18.08;13.15;;;;;;;;;;5051491;28;20059;-71
2022/03/14 10:08:01;;;;;;;23.02;11.32;;;;;;;;;;5051541;28;20136;-70
2022/03/14 10:10:27;;;;;;;16.60;12.45;;;;;;;;;;5048792;28;20037;-70
2022/03/14 10:12:55;;;;;;;17.17;14.68;;;;;;;;;;5052332;28;20045;-69
2022/03/14 10:15:22;;;;;;;17.38;13.55;;;;;;;;;;5052420;28;20049;-70
2022/03/14 10:17:48;;;;;;;18.05;13.85;;;;;;;;;;5051846;28;20049;-69
2022/03/14 10:20:18;;;;;;;17.52;12.25;;;;;;;;;;5052102;28;20120;-70
2022/03/14 10:22:45;;;;;;;17.00;13.07;;;;;;;;;;5051523;28;20048;-70
2022/03/14 10:25:13;;;;;;;17.98;13.30;;;;;;;;;;5047734;28;20053;-71
2022/03/14 10:27:40;;;;;;;18.75;14.00;;;;;;;;;;5049788;28;20072;-70
2022/03/14 10:30:20;;;;;;;15.98;13.15;;;;;;;;;;5051609;28;20049;-70
2022/03/14 10:32:48;;;;;;;17.13;13.13;;;;;;;;;;5051837;28;20162;-70
2022/03/14 10:35:20;;;;;;;22.33;13.40;;;;;;;;;;5051113;28;20053;-70
2022/03/14 10:37:57;;;;;;;23.88;15.07;;;;;;;;;;5048123;28;20502;-71
2022/03/14 10:40:29;;;;;;;16.27;12.40;;;;;;;;;;5054041;28;20116;-70
2022/03/14 10:42:55;;;;;;;14.43;10.90;;;;;;;;;;5055294;28;20109;-70
2022/03/14 10:45:21;;;;;;;18.15;11.68;;;;;;;;;;5055295;28;20140;-70
2022/03/14 10:47:52;;;;;;;17.15;10.60;;;;;;;;;;5055458;28;20483;-70
2022/03/14 10:50:33;;;;;;;16.95;10.20;;;;;;;;;;5055532;28;20102;-70
2022/03/14 10:53:03;;;;;;;19.67;10.88;;;;;;;;;;5055034;28;20553;-70
2022/03/14 10:55:36;;;;;;;17.45;10.57;;;;;;;;;;5037200;28;20049;-70
2022/03/14 10:58:11;;;;;;;20.02;11.63;;;;;;;;;;5055204;28;20045;-70
2022/03/14 11:00:57;;;;;;;21.98;11.63;;;;;;;;;;5055032;28;20045;-70
2022/03/14 11:03:24;;;;;;;18.15;12.48;;;;;;;;;;5055270;28;20083;-69
2022/03/14 11:05:50;;;;;;;21.63;12.60;;;;;;;;;;5054908;28;20044;-70
2022/03/14 11:08:30;;;;;;;22.25;12.55;;;;;;;;;;5055028;28;20083;-69
2022/03/14 11:10:57;;;;;;;21.75;13.93;;;;;;;;;;5037191;28;20044;-69
2022/03/14 11:13:23;;;;;;;22.33;13.23;;;;;;;;;;5053888;28;20045;-70
2022/03/14 11:15:50;;;;;;;23.70;15.02;;;;;;;;;;5055255;28;20052;-70
2022/03/14 11:18:18;;;;;;;27.08;16.70;;;;;;;;;;5054358;28;20530;-69
2022/03/14 11:20:45;;;;;;;21.77;15.15;;;;;;;;;;5017576;28;20053;-69
2022/03/14 11:23:12;;;;;;;24.45;15.85;;;;;;;;;;5052263;28;20513;-71
2022/03/14 11:25:39;;;;;;;30.90;17.77;;;;;;;;;;5054430;28;20037;-70
2022/03/14 11:28:06;;;;;;;23.20;14.95;;;;;;;;;;5054947;28;20052;-70
2022/03/14 11:30:37;;;;;;;21.83;14.70;;;;;;;;;;5047424;28;20049;-70
2022/03/14 11:33:04;;;;;;;27.10;16.40;;;;;;;;;;5053691;28;20102;-71
2022/03/14 11:35:30;;;;;;;23.92;14.18;;;;;;;;;;5054544;28;20095;-69
2022/03/14 11:37:57;;;;;;;21.73;14.50;;;;;;;;;;5053990;28;20067;-69
2022/03/14 11:40:24;;;;;;;23.48;14.23;;;;;;;;;;5054939;28;20044;-69
2022/03/14 11:42:50;;;;;;;21.85;14.15;;;;;;;;;;5054355;28;20041;-70
2022/03/14 11:45:17;;;;;;;22.00;15.93;;;;;;;;;;5054743;28;20045;-69
2022/03/14 11:47:44;;;;;;;22.73;14.65;;;;;;;;;;5036430;28;20048;-70
2022/03/14 11:50:11;;;;;;;23.08;14.38;;;;;;;;;;5053167;28;20058;-69
2022/03/14 11:52:40;;;;;;;24.15;13.73;;;;;;;;;;5054271;28;20056;-69
2022/03/14 11:55:20;;;;;;;25.75;16.08;;;;;;;;;;5036181;28;20095;-70
2022/03/14 11:57:47;;;;;;;22.70;14.20;;;;;;;;;;5054585;28;20056;-71
2022/03/14 12:00:24;;;;;;;26.50;14.60;;;;;;;;;;5052746;28;20407;-69
2022/03/14 12:02:51;;;;;;;23.85;13.35;;;;;;;;;;5054424;28;20040;-69
2022/03/14 12:05:24;;;;;;;23.98;14.23;;;;;;;;;;5053649;28;20197;-69
2022/03/14 12:07:51;;;;;;;22.65;14.60;;;;;;;;;;5052785;28;20052;-68
2022/03/14 12:10:30;;;;;;;22.60;13.90;;;;;;;;;;5052765;28;20051;-69
2022/03/14 12:13:01;;;;;;;23.45;13.90;;;;;;;;;;5053476;28;20047;-67
2022/03/14 12:15:43;;;;;;;26.87;15.07;;;;;;;;;;5053217;28;20049;-68
2022/03/14 12:18:25;;;;;;;21.95;13.57;;;;;;;;;;5035931;28;20053;-68
2022/03/14 12:21:03;;;;;;;22.40;13.38;;;;;;;;;;5052289;28;20053;-69
2022/03/14 12:23:32;;;;;;;22.92;13.88;;;;;;;;;;5053004;28;20403;-68
2022/03/14 12:25:59;;;;;;;21.00;11.32;;;;;;;;;;5035674;28;20045;-69
2022/03/14 12:28:35;;;;;;;19.05;12.02;;;;;;;;;;5053140;28;20052;-73
2022/03/14 12:31:04;;;;;;;23.20;12.27;;;;;;;;;;5052789;28;20132;-69
2022/03/14 12:33:32;;;;;;;26.00;12.23;;;;;;;;;;5053025;28;20049;-70
2022/03/14 12:36:01;;;;;;;22.73;11.38;;;;;;;;;;5053572;28;20041;-70
2022/03/14 12:38:27;;;;;;;22.83;11.38;;;;;;;;;;5066088;28;20055;-70
2022/03/14 12:43:54;;;;;;;20.00;10.00;;;;;;;;;;2853813;22;20061;-87
2022/03/14 12:46:21;;;;;;;21.95;10.10;;;;;;;;;;5031507;28;20042;-87
2022/03/14 12:48:54;;;;;;;21.92;9.95;;;;;;;;;;5033867;28;20037;-86
2022/03/14 12:51:24;;;;;;;17.95;9.07;;;;;;;;;;5034912;28;20083;-86
2022/03/14 12:53:51;;;;;;;21.60;8.18;;;;;;;;;;5048020;28;20658;-87
2022/03/14 12:56:17;;;;;;;19.80;9.68;;;;;;;;;;5032760;28;20046;-86
2022/03/14 12:58:51;;;;;;;18.85;10.82;;;;;;;;;;5031545;28;20076;-87
2022/03/14 13:01:17;;;;;;;24.95;11.50;;;;;;;;;;5024059;28;20060;-85
2022/03/14 13:03:44;;;;;;;23.20;12.60;;;;;;;;;;5021043;28;20045;-86
2022/03/14 13:06:11;;;;;;;21.95;12.80;;;;;;;;;;5034747;28;20049;-87
2022/03/14 13:08:54;;;;;;;19.23;12.00;;;;;;;;;;5033426;28;20046;-86
2022/03/14 13:11:20;;;;;;;20.33;12.60;;;;;;;;;;5034194;28;20373;-86
2022/03/14 13:13:47;;;;;;;22.83;14.10;;;;;;;;;;5033435;28;20046;-86
2022/03/14 13:16:16;;;;;;;19.95;14.27;;;;;;;;;;5032517;28;20056;-88
2022/03/14 13:18:44;;;;;;;24.30;15.27;;;;;;;;;;5029347;28;20077;-87
2022/03/14 13:21:11;;;;;;;23.25;14.15;;;;;;;;;;5033746;28;20079;-87
2022/03/14 13:23:37;;;;;;;24.05;15.27;;;;;;;;;;5034293;28;20045;-87
2022/03/14 13:26:03;;;;;;;24.05;16.25;;;;;;;;;;5034098;28;20116;-87
2022/03/14 13:28:33;;;;;;;21.42;16.05;;;;;;;;;;5034299;28;20049;-87
2022/03/14 13:31:00;;;;;;;24.95;16.85;;;;;;;;;;5034912;28;20045;-87
2022/03/14 13:33:27;;;;;;;22.35;16.27;;;;;;;;;;5034827;28;20085;-86
2022/03/14 13:35:54;;;;;;;27.00;15.73;;;;;;;;;;5034010;28;20045;-87
2022/03/14 13:38:37;;;;;;;21.77;15.95;;;;;;;;;;5032799;28;20050;-87
2022/03/14 13:41:04;;;;;;;22.17;15.63;;;;;;;;;;5031818;28;20068;-86
2022/03/14 13:43:30;;;;;;;23.08;16.70;;;;;;;;;;5032058;28;20507;-87
2022/03/14 13:46:15;;;;;;;24.20;15.73;;;;;;;;;;5033422;28;20050;-87
2022/03/14 13:48:54;;;;;;;25.38;16.60;;;;;;;;;;5038059;28;20053;-87
2022/03/14 13:51:21;;;;;;;25.90;16.88;;;;;;;;;;5031756;28;20049;-87
2022/03/14 13:53:50;;;;;;;25.98;15.88;;;;;;;;;;5033507;28;20072;-87
2022/03/14 13:56:16;;;;;;;24.08;15.73;;;;;;;;;;5032105;28;20056;-87
2022/03/14 13:58:55;;;;;;;23.88;15.82;;;;;;;;;;5045979;28;20064;-86
2022/03/14 14:01:40;;;;;;;19.52;13.70;;;;;;;;;;5013787;28;20062;-86
2022/03/14 14:04:17;;;;;;;20.05;13.48;;;;;;;;;;5029047;28;20085;-85
2022/03/14 14:06:48;;;;;;;22.50;14.93;;;;;;;;;;5033783;28;20156;-85
2022/03/14 14:09:22;;;;;;;24.77;14.85;;;;;;;;;;5032122;28;20101;-86
2022/03/14 14:12:01;;;;;;;25.10;15.02;;;;;;;;;;5025393;28;20135;-86
2022/03/14 14:14:28;;;;;;;18.88;13.07;;;;;;;;;;5034711;28;20480;-88
2022/03/14 14:17:07;;;;;;;20.58;13.15;;;;;;;;;;5038170;28;20488;-86
2022/03/14 14:19:33;;;;;;;21.20;14.05;;;;;;;;;;5039707;28;20091;-86
2022/03/14 14:21:59;;;;;;;19.42;14.43;;;;;;;;;;5038549;28;20042;-86
2022/03/14 14:24:25;;;;;;;23.88;14.95;;;;;;;;;;5035282;28;20476;-86
2022/03/14 14:26:52;;;;;;;20.38;14.65;;;;;;;;;;5040228;28;20038;-86
2022/03/14 14:29:37;;;;;;;23.13;15.88;;;;;;;;;;5039586;28;20049;-86
2022/03/14 14:32:13;;;;;;;20.08;14.95;;;;;;;;;;5046906;28;20038;-84